sensor_id;sensor_type;location;lat;lon;timestamp;P1;durP1;ratioP1;P2;durP2;ratioP2
59790;SDS011;47431;51.640;5.554;2022-09-16T00:02:16;9.30;;;2.03;;
59790;SDS011;47431;51.640;5.554;2022-09-16T00:04:41;6.43;;;2.45;;
59790;SDS011;47431;51.640;5.554;2022-09-16T00:07:06;8.15;;;2.50;;
59790;SDS011;47431;51.640;5.554;2022-09-16T00:09:32;6.75;;;2.47;;
59790;SDS011;47431;51.640;5.554;2022-09-16T00:11:57;14.98;;;3.90;;
59790;SDS011;47431;51.640;5.554;2022-09-16T00:14:22;11.35;;;3.40;;
59790;SDS011;47431;51.640;5.554;2022-09-16T00:16:48;11.18;;;3.75;;
59790;SDS011;47431;51.640;5.554;2022-09-16T00:19:13;9.30;;;3.60;;
59790;SDS011;47431;51.640;5.554;2022-09-16T00:21:38;10.85;;;3.78;;
59790;SDS011;47431;51.640;5.554;2022-09-16T00:24:04;7.70;;;3.92;;
59790;SDS011;47431;51.640;5.554;2022-09-16T00:26:29;7.47;;;3.38;;
59790;SDS011;47431;51.640;5.554;2022-09-16T00:28:54;10.00;;;3.22;;
59790;SDS011;47431;51.640;5.554;2022-09-16T00:31:20;12.57;;;4.22;;
59790;SDS011;47431;51.640;5.554;2022-09-16T00:33:45;6.93;;;2.80;;
59790;SDS011;47431;51.640;5.554;2022-09-16T00:36:12;11.50;;;3.55;;
59790;SDS011;47431;51.640;5.554;2022-09-16T00:38:40;10.85;;;3.58;;
59790;SDS011;47431;51.640;5.554;2022-09-16T00:41:06;9.27;;;2.95;;
59790;SDS011;47431;51.640;5.554;2022-09-16T00:43:45;9.68;;;3.05;;
59790;SDS011;47431;51.640;5.554;2022-09-16T00:46:16;9.88;;;2.33;;
59790;SDS011;47431;51.640;5.554;2022-09-16T00:48:44;10.63;;;2.97;;
59790;SDS011;47431;51.640;5.554;2022-09-16T00:51:10;6.63;;;2.80;;
59790;SDS011;47431;51.640;5.554;2022-09-16T00:53:38;13.65;;;3.55;;
59790;SDS011;47431;51.640;5.554;2022-09-16T00:56:06;6.82;;;3.05;;
59790;SDS011;47431;51.640;5.554;2022-09-16T00:58:43;16.10;;;3.28;;
59790;SDS011;47431;51.640;5.554;2022-09-16T01:01:12;8.23;;;3.88;;
59790;SDS011;47431;51.640;5.554;2022-09-16T01:03:48;7.97;;;3.42;;
59790;SDS011;47431;51.640;5.554;2022-09-16T01:06:19;9.00;;;3.30;;
59790;SDS011;47431;51.640;5.554;2022-09-16T01:08:48;13.38;;;4.50;;
59790;SDS011;47431;51.640;5.554;2022-09-16T01:11:14;7.18;;;4.22;;
59790;SDS011;47431;51.640;5.554;2022-09-16T01:13:39;10.23;;;4.18;;
59790;SDS011;47431;51.640;5.554;2022-09-16T01:18:42;14.35;;;4.15;;
59790;SDS011;47431;51.640;5.554;2022-09-16T01:29:37;16.55;;;4.10;;
59790;SDS011;47431;51.640;5.554;2022-09-16T01:32:11;10.32;;;3.88;;
59790;SDS011;47431;51.640;5.554;2022-09-16T01:34:55;11.48;;;4.03;;
59790;SDS011;47431;51.640;5.554;2022-09-16T01:42:38;9.95;;;4.90;;
59790;SDS011;47431;51.640;5.554;2022-09-16T01:47:49;8.27;;;5.22;;
59790;SDS011;47431;51.640;5.554;2022-09-16T01:55:56;12.30;;;6.05;;
59790;SDS011;47431;51.640;5.554;2022-09-16T01:58:51;14.05;;;5.90;;
59790;SDS011;47431;51.640;5.554;2022-09-16T02:04:18;10.55;;;5.30;;
59790;SDS011;47431;51.640;5.554;2022-09-16T02:06:48;16.10;;;5.78;;
59790;SDS011;47431;51.640;5.554;2022-09-16T02:09:19;13.30;;;6.80;;
59790;SDS011;47431;51.640;5.554;2022-09-16T02:12:10;11.18;;;7.13;;
59790;SDS011;47431;51.640;5.554;2022-09-16T02:14:41;18.77;;;6.82;;
59790;SDS011;47431;51.640;5.554;2022-09-16T02:17:11;12.77;;;5.57;;
59790;SDS011;47431;51.640;5.554;2022-09-16T02:22:31;18.35;;;6.40;;
59790;SDS011;47431;51.640;5.554;2022-09-16T02:25:00;8.88;;;5.38;;
59790;SDS011;47431;51.640;5.554;2022-09-16T02:27:29;12.82;;;5.93;;
59790;SDS011;47431;51.640;5.554;2022-09-16T02:29:56;12.75;;;6.18;;
59790;SDS011;47431;51.640;5.554;2022-09-16T02:32:29;14.48;;;6.30;;
59790;SDS011;47431;51.640;5.554;2022-09-16T02:34:59;9.18;;;5.20;;
59790;SDS011;47431;51.640;5.554;2022-09-16T02:40:04;12.30;;;5.85;;
59790;SDS011;47431;51.640;5.554;2022-09-16T02:42:35;14.52;;;6.82;;
59790;SDS011;47431;51.640;5.554;2022-09-16T02:45:00;16.05;;;6.35;;
59790;SDS011;47431;51.640;5.554;2022-09-16T02:47:28;14.30;;;6.68;;
59790;SDS011;47431;51.640;5.554;2022-09-16T02:58:02;11.32;;;6.10;;
59790;SDS011;47431;51.640;5.554;2022-09-16T03:00:29;14.50;;;5.53;;
59790;SDS011;47431;51.640;5.554;2022-09-16T03:02:59;13.45;;;5.57;;
59790;SDS011;47431;51.640;5.554;2022-09-16T03:05:26;15.45;;;6.72;;
59790;SDS011;47431;51.640;5.554;2022-09-16T03:07:53;23.80;;;5.28;;
59790;SDS011;47431;51.640;5.554;2022-09-16T03:10:18;13.32;;;4.88;;
59790;SDS011;47431;51.640;5.554;2022-09-16T03:23:53;10.40;;;4.15;;
59790;SDS011;47431;51.640;5.554;2022-09-16T03:32:02;8.95;;;3.13;;
59790;SDS011;47431;51.640;5.554;2022-09-16T03:34:29;18.73;;;4.07;;
59790;SDS011;47431;51.640;5.554;2022-09-16T03:37:00;6.82;;;2.83;;
59790;SDS011;47431;51.640;5.554;2022-09-16T03:39:29;8.75;;;3.25;;
59790;SDS011;47431;51.640;5.554;2022-09-16T03:41:59;9.10;;;2.38;;
59790;SDS011;47431;51.640;5.554;2022-09-16T03:44:30;6.72;;;2.60;;
59790;SDS011;47431;51.640;5.554;2022-09-16T03:46:56;8.20;;;2.20;;
59790;SDS011;47431;51.640;5.554;2022-09-16T03:49:21;6.00;;;2.70;;
59790;SDS011;47431;51.640;5.554;2022-09-16T03:51:46;9.40;;;2.58;;
59790;SDS011;47431;51.640;5.554;2022-09-16T03:54:12;7.82;;;3.25;;
59790;SDS011;47431;51.640;5.554;2022-09-16T03:56:37;10.77;;;3.42;;
59790;SDS011;47431;51.640;5.554;2022-09-16T03:59:02;7.28;;;2.92;;
59790;SDS011;47431;51.640;5.554;2022-09-16T04:01:28;13.15;;;3.13;;
59790;SDS011;47431;51.640;5.554;2022-09-16T04:03:53;11.32;;;3.05;;
59790;SDS011;47431;51.640;5.554;2022-09-16T04:06:18;11.00;;;3.10;;
59790;SDS011;47431;51.640;5.554;2022-09-16T04:08:43;13.05;;;2.92;;
59790;SDS011;47431;51.640;5.554;2022-09-16T04:11:09;6.90;;;2.42;;
59790;SDS011;47431;51.640;5.554;2022-09-16T04:13:34;12.45;;;2.63;;
59790;SDS011;47431;51.640;5.554;2022-09-16T04:16:00;7.32;;;2.15;;
59790;SDS011;47431;51.640;5.554;2022-09-16T04:18:27;6.65;;;1.88;;
59790;SDS011;47431;51.640;5.554;2022-09-16T04:20:55;9.95;;;2.42;;
59790;SDS011;47431;51.640;5.554;2022-09-16T04:23:22;8.63;;;2.45;;
59790;SDS011;47431;51.640;5.554;2022-09-16T04:25:53;9.73;;;2.17;;
59790;SDS011;47431;51.640;5.554;2022-09-16T04:28:28;7.28;;;1.60;;
59790;SDS011;47431;51.640;5.554;2022-09-16T04:30:58;7.07;;;2.22;;
59790;SDS011;47431;51.640;5.554;2022-09-16T04:33:29;14.20;;;2.47;;
59790;SDS011;47431;51.640;5.554;2022-09-16T04:36:05;7.55;;;2.17;;
59790;SDS011;47431;51.640;5.554;2022-09-16T04:38:39;7.90;;;1.60;;
59790;SDS011;47431;51.640;5.554;2022-09-16T04:41:10;6.35;;;2.28;;
59790;SDS011;47431;51.640;5.554;2022-09-16T04:43:37;6.78;;;1.85;;
59790;SDS011;47431;51.640;5.554;2022-09-16T04:46:03;7.28;;;1.88;;
59790;SDS011;47431;51.640;5.554;2022-09-16T04:48:29;7.68;;;2.00;;
59790;SDS011;47431;51.640;5.554;2022-09-16T04:51:00;5.55;;;1.70;;
59790;SDS011;47431;51.640;5.554;2022-09-16T04:53:29;11.70;;;2.40;;
59790;SDS011;47431;51.640;5.554;2022-09-16T04:56:06;5.32;;;1.85;;
59790;SDS011;47431;51.640;5.554;2022-09-16T04:58:33;4.78;;;1.67;;
59790;SDS011;47431;51.640;5.554;2022-09-16T05:01:05;16.23;;;2.67;;
59790;SDS011;47431;51.640;5.554;2022-09-16T05:03:31;5.90;;;1.70;;
59790;SDS011;47431;51.640;5.554;2022-09-16T05:06:04;6.70;;;2.03;;
59790;SDS011;47431;51.640;5.554;2022-09-16T05:08:30;5.65;;;1.95;;
59790;SDS011;47431;51.640;5.554;2022-09-16T05:11:01;4.65;;;1.92;;
59790;SDS011;47431;51.640;5.554;2022-09-16T05:13:28;7.75;;;1.60;;
59790;SDS011;47431;51.640;5.554;2022-09-16T05:15:53;8.00;;;1.77;;
59790;SDS011;47431;51.640;5.554;2022-09-16T05:18:18;8.05;;;1.58;;
59790;SDS011;47431;51.640;5.554;2022-09-16T05:20:44;8.25;;;2.50;;
59790;SDS011;47431;51.640;5.554;2022-09-16T05:23:09;18.67;;;2.50;;
59790;SDS011;47431;51.640;5.554;2022-09-16T05:25:34;6.30;;;2.05;;
59790;SDS011;47431;51.640;5.554;2022-09-16T05:28:00;6.03;;;2.28;;
59790;SDS011;47431;51.640;5.554;2022-09-16T05:30:26;6.32;;;1.73;;
59790;SDS011;47431;51.640;5.554;2022-09-16T05:32:52;6.93;;;2.80;;
59790;SDS011;47431;51.640;5.554;2022-09-16T05:35:18;7.68;;;2.10;;
59790;SDS011;47431;51.640;5.554;2022-09-16T05:37:43;4.80;;;1.85;;
59790;SDS011;47431;51.640;5.554;2022-09-16T05:40:09;12.20;;;2.08;;
59790;SDS011;47431;51.640;5.554;2022-09-16T05:42:34;5.70;;;1.60;;
59790;SDS011;47431;51.640;5.554;2022-09-16T05:44:59;5.45;;;2.15;;
59790;SDS011;47431;51.640;5.554;2022-09-16T05:47:25;6.65;;;2.03;;
59790;SDS011;47431;51.640;5.554;2022-09-16T05:49:51;4.22;;;1.33;;
59790;SDS011;47431;51.640;5.554;2022-09-16T05:52:18;4.07;;;1.08;;
59790;SDS011;47431;51.640;5.554;2022-09-16T05:54:44;7.22;;;1.70;;
59790;SDS011;47431;51.640;5.554;2022-09-16T05:57:09;4.57;;;1.80;;
59790;SDS011;47431;51.640;5.554;2022-09-16T05:59:34;13.73;;;1.70;;
59790;SDS011;47431;51.640;5.554;2022-09-16T06:01:59;4.93;;;1.55;;
59790;SDS011;47431;51.640;5.554;2022-09-16T06:04:25;6.03;;;1.75;;
59790;SDS011;47431;51.640;5.554;2022-09-16T06:06:50;11.10;;;2.03;;
59790;SDS011;47431;51.640;5.554;2022-09-16T06:09:19;6.40;;;1.20;;
59790;SDS011;47431;51.640;5.554;2022-09-16T06:11:47;8.45;;;1.63;;
59790;SDS011;47431;51.640;5.554;2022-09-16T06:14:14;4.65;;;1.25;;
59790;SDS011;47431;51.640;5.554;2022-09-16T06:16:41;3.65;;;1.30;;
59790;SDS011;47431;51.640;5.554;2022-09-16T06:19:08;4.32;;;1.30;;
59790;SDS011;47431;51.640;5.554;2022-09-16T06:21:37;6.35;;;1.15;;
59790;SDS011;47431;51.640;5.554;2022-09-16T06:24:03;3.33;;;1.20;;
59790;SDS011;47431;51.640;5.554;2022-09-16T06:26:32;11.80;;;1.95;;
59790;SDS011;47431;51.640;5.554;2022-09-16T06:28:59;9.35;;;1.38;;
59790;SDS011;47431;51.640;5.554;2022-09-16T06:31:25;8.60;;;1.60;;
59790;SDS011;47431;51.640;5.554;2022-09-16T06:33:52;5.63;;;1.58;;
59790;SDS011;47431;51.640;5.554;2022-09-16T06:36:23;9.90;;;1.63;;
59790;SDS011;47431;51.640;5.554;2022-09-16T06:38:52;6.82;;;1.77;;
59790;SDS011;47431;51.640;5.554;2022-09-16T06:41:18;7.97;;;1.80;;
59790;SDS011;47431;51.640;5.554;2022-09-16T06:43:45;10.85;;;2.13;;
59790;SDS011;47431;51.640;5.554;2022-09-16T06:46:12;5.60;;;1.90;;
59790;SDS011;47431;51.640;5.554;2022-09-16T06:48:43;7.90;;;2.40;;
59790;SDS011;47431;51.640;5.554;2022-09-16T06:51:15;8.20;;;2.30;;
59790;SDS011;47431;51.640;5.554;2022-09-16T06:53:42;10.40;;;2.33;;
59790;SDS011;47431;51.640;5.554;2022-09-16T06:56:09;14.00;;;2.92;;
59790;SDS011;47431;51.640;5.554;2022-09-16T06:58:37;8.23;;;2.55;;
59790;SDS011;47431;51.640;5.554;2022-09-16T07:01:05;7.18;;;2.42;;
59790;SDS011;47431;51.640;5.554;2022-09-16T07:03:32;7.20;;;2.25;;
59790;SDS011;47431;51.640;5.554;2022-09-16T07:05:58;5.97;;;2.30;;
59790;SDS011;47431;51.640;5.554;2022-09-16T07:08:29;10.68;;;2.53;;
59790;SDS011;47431;51.640;5.554;2022-09-16T07:10:56;8.43;;;2.53;;
59790;SDS011;47431;51.640;5.554;2022-09-16T07:13:22;11.13;;;2.22;;
59790;SDS011;47431;51.640;5.554;2022-09-16T07:15:47;8.90;;;2.47;;
59790;SDS011;47431;51.640;5.554;2022-09-16T07:18:12;6.13;;;2.00;;
59790;SDS011;47431;51.640;5.554;2022-09-16T07:20:37;10.68;;;2.40;;
59790;SDS011;47431;51.640;5.554;2022-09-16T07:23:03;8.80;;;1.92;;
59790;SDS011;47431;51.640;5.554;2022-09-16T07:25:28;5.65;;;2.08;;
59790;SDS011;47431;51.640;5.554;2022-09-16T07:27:53;8.80;;;1.95;;
59790;SDS011;47431;51.640;5.554;2022-09-16T07:30:18;4.60;;;1.70;;
59790;SDS011;47431;51.640;5.554;2022-09-16T07:32:44;8.00;;;2.10;;
59790;SDS011;47431;51.640;5.554;2022-09-16T07:35:09;5.95;;;2.00;;
59790;SDS011;47431;51.640;5.554;2022-09-16T07:37:35;7.55;;;2.78;;
59790;SDS011;47431;51.640;5.554;2022-09-16T07:40:00;12.57;;;2.33;;
59790;SDS011;47431;51.640;5.554;2022-09-16T07:42:27;6.38;;;1.92;;
59790;SDS011;47431;51.640;5.554;2022-09-16T07:44:53;7.63;;;1.98;;
59790;SDS011;47431;51.640;5.554;2022-09-16T07:47:18;8.98;;;1.55;;
59790;SDS011;47431;51.640;5.554;2022-09-16T07:49:43;5.53;;;1.35;;
59790;SDS011;47431;51.640;5.554;2022-09-16T07:52:09;5.80;;;1.73;;
59790;SDS011;47431;51.640;5.554;2022-09-16T07:54:34;6.70;;;2.00;;
59790;SDS011;47431;51.640;5.554;2022-09-16T07:57:00;6.97;;;1.92;;
59790;SDS011;47431;51.640;5.554;2022-09-16T07:59:25;12.68;;;2.47;;
59790;SDS011;47431;51.640;5.554;2022-09-16T08:01:50;8.07;;;2.10;;
59790;SDS011;47431;51.640;5.554;2022-09-16T08:04:16;7.88;;;2.00;;
59790;SDS011;47431;51.640;5.554;2022-09-16T08:06:42;9.50;;;2.42;;
59790;SDS011;47431;51.640;5.554;2022-09-16T08:09:07;7.20;;;1.98;;
59790;SDS011;47431;51.640;5.554;2022-09-16T08:11:33;7.82;;;2.50;;
59790;SDS011;47431;51.640;5.554;2022-09-16T08:13:58;5.80;;;2.05;;
59790;SDS011;47431;51.640;5.554;2022-09-16T08:16:24;8.25;;;1.83;;
59790;SDS011;47431;51.640;5.554;2022-09-16T08:18:50;7.38;;;1.98;;
59790;SDS011;47431;51.640;5.554;2022-09-16T08:21:20;4.95;;;1.52;;
59790;SDS011;47431;51.640;5.554;2022-09-16T08:23:47;7.22;;;1.65;;
59790;SDS011;47431;51.640;5.554;2022-09-16T08:26:13;4.85;;;1.33;;
59790;SDS011;47431;51.640;5.554;2022-09-16T08:28:41;3.08;;;0.93;;
59790;SDS011;47431;51.640;5.554;2022-09-16T08:31:07;4.18;;;1.27;;
59790;SDS011;47431;51.640;5.554;2022-09-16T08:33:33;6.40;;;1.10;;
59790;SDS011;47431;51.640;5.554;2022-09-16T08:35:59;8.05;;;1.30;;
59790;SDS011;47431;51.640;5.554;2022-09-16T08:38:26;4.15;;;0.80;;
59790;SDS011;47431;51.640;5.554;2022-09-16T08:40:53;6.30;;;1.23;;
59790;SDS011;47431;51.640;5.554;2022-09-16T08:43:42;3.90;;;1.23;;
59790;SDS011;47431;51.640;5.554;2022-09-16T08:46:17;5.25;;;1.30;;
59790;SDS011;47431;51.640;5.554;2022-09-16T08:48:55;4.20;;;1.38;;
59790;SDS011;47431;51.640;5.554;2022-09-16T08:51:27;2.97;;;1.00;;
59790;SDS011;47431;51.640;5.554;2022-09-16T08:53:56;12.52;;;1.30;;
59790;SDS011;47431;51.640;5.554;2022-09-16T08:56:26;4.55;;;0.85;;
59790;SDS011;47431;51.640;5.554;2022-09-16T08:58:55;6.70;;;0.90;;
59790;SDS011;47431;51.640;5.554;2022-09-16T09:04:01;6.65;;;1.55;;
59790;SDS011;47431;51.640;5.554;2022-09-16T09:06:37;6.00;;;1.80;;
59790;SDS011;47431;51.640;5.554;2022-09-16T09:09:18;8.07;;;1.65;;
59790;SDS011;47431;51.640;5.554;2022-09-16T09:12:01;5.78;;;1.17;;
59790;SDS011;47431;51.640;5.554;2022-09-16T09:26:21;2.95;;;0.90;;
59790;SDS011;47431;51.640;5.554;2022-09-16T09:31:36;4.75;;;1.58;;
59790;SDS011;47431;51.640;5.554;2022-09-16T09:34:28;9.07;;;1.20;;
59790;SDS011;47431;51.640;5.554;2022-09-16T09:42:52;7.25;;;1.25;;
59790;SDS011;47431;51.640;5.554;2022-09-16T09:45:30;3.80;;;0.90;;
59790;SDS011;47431;51.640;5.554;2022-09-16T09:48:01;1.92;;;0.85;;
59790;SDS011;47431;51.640;5.554;2022-09-16T09:55:35;3.40;;;0.85;;
59790;SDS011;47431;51.640;5.554;2022-09-16T10:00:43;2.65;;;0.63;;
59790;SDS011;47431;51.640;5.554;2022-09-16T10:03:10;6.75;;;1.10;;
59790;SDS011;47431;51.640;5.554;2022-09-16T10:05:38;5.45;;;0.82;;
59790;SDS011;47431;51.640;5.554;2022-09-16T10:08:08;1.88;;;0.73;;
59790;SDS011;47431;51.640;5.554;2022-09-16T10:10:38;4.47;;;1.05;;
59790;SDS011;47431;51.640;5.554;2022-09-16T10:13:14;8.25;;;1.30;;
59790;SDS011;47431;51.640;5.554;2022-09-16T10:15:41;6.93;;;1.50;;
59790;SDS011;47431;51.640;5.554;2022-09-16T10:18:20;5.30;;;1.27;;
59790;SDS011;47431;51.640;5.554;2022-09-16T10:21:08;4.43;;;0.90;;
59790;SDS011;47431;51.640;5.554;2022-09-16T10:23:36;6.15;;;1.73;;
59790;SDS011;47431;51.640;5.554;2022-09-16T10:26:04;10.60;;;1.85;;
59790;SDS011;47431;51.640;5.554;2022-09-16T10:28:56;14.23;;;1.77;;
59790;SDS011;47431;51.640;5.554;2022-09-16T10:31:23;6.97;;;1.98;;
59790;SDS011;47431;51.640;5.554;2022-09-16T10:33:50;5.13;;;1.35;;
59790;SDS011;47431;51.640;5.554;2022-09-16T10:36:17;3.50;;;1.13;;
59790;SDS011;47431;51.640;5.554;2022-09-16T10:38:50;6.53;;;1.73;;
59790;SDS011;47431;51.640;5.554;2022-09-16T10:41:23;3.47;;;1.38;;
59790;SDS011;47431;51.640;5.554;2022-09-16T10:43:51;6.05;;;1.38;;
59790;SDS011;47431;51.640;5.554;2022-09-16T10:46:19;5.55;;;1.38;;
59790;SDS011;47431;51.640;5.554;2022-09-16T10:48:45;7.30;;;1.05;;
59790;SDS011;47431;51.640;5.554;2022-09-16T10:51:22;2.72;;;0.73;;
59790;SDS011;47431;51.640;5.554;2022-09-16T10:53:51;3.30;;;1.25;;
59790;SDS011;47431;51.640;5.554;2022-09-16T10:56:27;5.00;;;1.13;;
59790;SDS011;47431;51.640;5.554;2022-09-16T10:59:01;6.10;;;1.33;;
59790;SDS011;47431;51.640;5.554;2022-09-16T11:01:39;5.10;;;0.82;;
59790;SDS011;47431;51.640;5.554;2022-09-16T11:13:02;6.32;;;1.50;;
59790;SDS011;47431;51.640;5.554;2022-09-16T11:24:17;5.15;;;1.33;;
59790;SDS011;47431;51.640;5.554;2022-09-16T11:37:40;3.95;;;1.00;;
59790;SDS011;47431;51.640;5.554;2022-09-16T11:45:51;7.30;;;1.05;;
59790;SDS011;47431;51.640;5.554;2022-09-16T11:57:02;2.28;;;0.60;;
59790;SDS011;47431;51.640;5.554;2022-09-16T11:59:40;6.47;;;1.25;;
59790;SDS011;47431;51.640;5.554;2022-09-16T12:02:16;4.78;;;0.65;;
59790;SDS011;47431;51.640;5.554;2022-09-16T12:04:58;1.27;;;0.60;;
59790;SDS011;47431;51.640;5.554;2022-09-16T12:07:51;2.30;;;0.70;;
59790;SDS011;47431;51.640;5.554;2022-09-16T12:12:52;7.63;;;1.63;;
59790;SDS011;47431;51.640;5.554;2022-09-16T12:15:26;6.65;;;1.13;;
59790;SDS011;47431;51.640;5.554;2022-09-16T12:18:01;4.03;;;0.95;;
59790;SDS011;47431;51.640;5.554;2022-09-16T12:20:35;1.40;;;0.50;;
59790;SDS011;47431;51.640;5.554;2022-09-16T12:36:38;4.65;;;0.93;;
59790;SDS011;47431;51.640;5.554;2022-09-16T12:39:07;4.22;;;1.13;;
59790;SDS011;47431;51.640;5.554;2022-09-16T12:44:52;4.07;;;0.90;;
59790;SDS011;47431;51.640;5.554;2022-09-16T12:51:06;6.78;;;1.30;;
59790;SDS011;47431;51.640;5.554;2022-09-16T12:55:49;4.18;;;1.25;;
59790;SDS011;47431;51.640;5.554;2022-09-16T13:01:24;5.80;;;1.20;;
59790;SDS011;47431;51.640;5.554;2022-09-16T13:03:56;7.57;;;1.55;;
59790;SDS011;47431;51.640;5.554;2022-09-16T13:06:35;10.32;;;2.00;;
59790;SDS011;47431;51.640;5.554;2022-09-16T13:11:51;9.98;;;1.67;;
59790;SDS011;47431;51.640;5.554;2022-09-16T13:14:46;8.90;;;1.10;;
59790;SDS011;47431;51.640;5.554;2022-09-16T13:17:14;8.45;;;1.42;;
59790;SDS011;47431;51.640;5.554;2022-09-16T13:19:57;7.70;;;1.50;;
59790;SDS011;47431;51.640;5.554;2022-09-16T13:22:31;9.35;;;1.77;;
59790;SDS011;47431;51.640;5.554;2022-09-16T13:27:58;7.30;;;1.50;;
59790;SDS011;47431;51.640;5.554;2022-09-16T13:30:30;7.95;;;1.50;;
59790;SDS011;47431;51.640;5.554;2022-09-16T13:33:02;6.40;;;1.70;;
59790;SDS011;47431;51.640;5.554;2022-09-16T13:37:57;3.85;;;1.48;;
59790;SDS011;47431;51.640;5.554;2022-09-16T13:40:24;4.60;;;1.35;;
59790;SDS011;47431;51.640;5.554;2022-09-16T13:45:42;4.72;;;1.20;;
59790;SDS011;47431;51.640;5.554;2022-09-16T13:48:10;7.32;;;2.20;;
59790;SDS011;47431;51.640;5.554;2022-09-16T13:50:44;5.80;;;1.35;;
59790;SDS011;47431;51.640;5.554;2022-09-16T13:53:33;5.13;;;1.00;;
59790;SDS011;47431;51.640;5.554;2022-09-16T13:58:39;5.57;;;1.17;;
59790;SDS011;47431;51.640;5.554;2022-09-16T14:01:20;7.20;;;1.15;;
59790;SDS011;47431;51.640;5.554;2022-09-16T14:13:12;4.90;;;1.55;;
59790;SDS011;47431;51.640;5.554;2022-09-16T14:15:44;4.47;;;1.30;;
59790;SDS011;47431;51.640;5.554;2022-09-16T14:18:14;7.38;;;1.35;;
59790;SDS011;47431;51.640;5.554;2022-09-16T14:23:29;5.50;;;1.20;;
59790;SDS011;47431;51.640;5.554;2022-09-16T14:25:56;9.32;;;1.98;;
59790;SDS011;47431;51.640;5.554;2022-09-16T14:28:32;8.07;;;1.42;;
59790;SDS011;47431;51.640;5.554;2022-09-16T14:31:03;10.45;;;1.70;;
59790;SDS011;47431;51.640;5.554;2022-09-16T14:33:34;9.57;;;2.15;;
59790;SDS011;47431;51.640;5.554;2022-09-16T14:36:15;4.30;;;1.15;;
59790;SDS011;47431;51.640;5.554;2022-09-16T14:39:08;7.10;;;1.50;;
59790;SDS011;47431;51.640;5.554;2022-09-16T14:41:37;8.37;;;1.43;;
59790;SDS011;47431;51.640;5.554;2022-09-16T14:46:41;8.00;;;1.90;;
59790;SDS011;47431;51.640;5.554;2022-09-16T14:49:10;5.53;;;1.90;;
59790;SDS011;47431;51.640;5.554;2022-09-16T14:51:37;8.25;;;2.00;;
59790;SDS011;47431;51.640;5.554;2022-09-16T14:54:14;7.13;;;1.73;;
59790;SDS011;47431;51.640;5.554;2022-09-16T14:56:53;6.30;;;1.30;;
59790;SDS011;47431;51.640;5.554;2022-09-16T14:59:24;6.43;;;1.88;;
59790;SDS011;47431;51.640;5.554;2022-09-16T15:04:52;6.20;;;1.23;;
59790;SDS011;47431;51.640;5.554;2022-09-16T15:07:26;8.93;;;1.92;;
59790;SDS011;47431;51.640;5.554;2022-09-16T15:12:28;4.88;;;1.13;;
59790;SDS011;47431;51.640;5.554;2022-09-16T15:14:56;7.28;;;1.13;;
59790;SDS011;47431;51.640;5.554;2022-09-16T15:17:23;8.07;;;1.58;;
59790;SDS011;47431;51.640;5.554;2022-09-16T15:19:55;7.07;;;1.55;;
59790;SDS011;47431;51.640;5.554;2022-09-16T15:22:22;11.18;;;2.92;;
59790;SDS011;47431;51.640;5.554;2022-09-16T15:24:50;6.70;;;1.92;;
59790;SDS011;47431;51.640;5.554;2022-09-16T15:27:23;12.63;;;2.28;;
59790;SDS011;47431;51.640;5.554;2022-09-16T15:29:55;10.50;;;2.53;;
59790;SDS011;47431;51.640;5.554;2022-09-16T15:32:23;13.52;;;1.85;;
59790;SDS011;47431;51.640;5.554;2022-09-16T15:35:10;7.00;;;1.83;;
59790;SDS011;47431;51.640;5.554;2022-09-16T15:37:42;6.22;;;1.35;;
59790;SDS011;47431;51.640;5.554;2022-09-16T15:40:28;9.43;;;2.55;;
59790;SDS011;47431;51.640;5.554;2022-09-16T15:43:03;9.65;;;1.50;;
59790;SDS011;47431;51.640;5.554;2022-09-16T15:45:35;9.73;;;1.52;;
59790;SDS011;47431;51.640;5.554;2022-09-16T15:48:10;8.18;;;1.98;;
59790;SDS011;47431;51.640;5.554;2022-09-16T15:50:45;9.43;;;2.03;;
59790;SDS011;47431;51.640;5.554;2022-09-16T15:54:00;5.93;;;2.25;;
59790;SDS011;47431;51.640;5.554;2022-09-16T15:56:20;6.93;;;1.50;;
59790;SDS011;47431;51.640;5.554;2022-09-16T15:58:52;10.10;;;1.60;;
59790;SDS011;47431;51.640;5.554;2022-09-16T16:01:39;8.18;;;1.90;;
59790;SDS011;47431;51.640;5.554;2022-09-16T16:04:08;8.73;;;1.70;;
59790;SDS011;47431;51.640;5.554;2022-09-16T16:06:46;21.08;;;3.67;;
59790;SDS011;47431;51.640;5.554;2022-09-16T16:11:54;10.48;;;2.05;;
59790;SDS011;47431;51.640;5.554;2022-09-16T16:14:21;9.55;;;2.75;;
59790;SDS011;47431;51.640;5.554;2022-09-16T16:16:48;9.15;;;2.47;;
59790;SDS011;47431;51.640;5.554;2022-09-16T16:19:13;6.47;;;1.45;;
59790;SDS011;47431;51.640;5.554;2022-09-16T16:21:39;11.38;;;1.88;;
59790;SDS011;47431;51.640;5.554;2022-09-16T16:24:08;13.40;;;1.77;;
59790;SDS011;47431;51.640;5.554;2022-09-16T16:26:33;11.00;;;1.65;;
59790;SDS011;47431;51.640;5.554;2022-09-16T16:28:59;7.10;;;1.60;;
59790;SDS011;47431;51.640;5.554;2022-09-16T16:31:24;8.07;;;2.08;;
59790;SDS011;47431;51.640;5.554;2022-09-16T16:33:50;11.52;;;2.60;;
59790;SDS011;47431;51.640;5.554;2022-09-16T16:36:15;10.80;;;2.13;;
59790;SDS011;47431;51.640;5.554;2022-09-16T16:38:42;5.90;;;1.40;;
59790;SDS011;47431;51.640;5.554;2022-09-16T16:41:09;9.40;;;1.90;;
59790;SDS011;47431;51.640;5.554;2022-09-16T16:43:36;8.02;;;1.70;;
59790;SDS011;47431;51.640;5.554;2022-09-16T16:46:02;8.98;;;2.05;;
59790;SDS011;47431;51.640;5.554;2022-09-16T16:48:28;7.25;;;2.28;;
59790;SDS011;47431;51.640;5.554;2022-09-16T16:50:57;14.23;;;2.08;;
59790;SDS011;47431;51.640;5.554;2022-09-16T16:53:25;8.30;;;1.48;;
59790;SDS011;47431;51.640;5.554;2022-09-16T16:55:51;8.57;;;1.40;;
59790;SDS011;47431;51.640;5.554;2022-09-16T16:58:16;6.90;;;2.20;;
59790;SDS011;47431;51.640;5.554;2022-09-16T17:00:42;10.15;;;2.15;;
59790;SDS011;47431;51.640;5.554;2022-09-16T17:03:07;7.72;;;1.73;;
59790;SDS011;47431;51.640;5.554;2022-09-16T17:05:32;10.90;;;2.35;;
59790;SDS011;47431;51.640;5.554;2022-09-16T17:07:58;15.82;;;2.22;;
59790;SDS011;47431;51.640;5.554;2022-09-16T17:10:23;7.93;;;1.60;;
59790;SDS011;47431;51.640;5.554;2022-09-16T17:12:48;14.60;;;2.05;;
59790;SDS011;47431;51.640;5.554;2022-09-16T17:15:14;8.88;;;1.95;;
59790;SDS011;47431;51.640;5.554;2022-09-16T17:17:39;12.30;;;2.40;;
59790;SDS011;47431;51.640;5.554;2022-09-16T17:20:05;7.90;;;1.63;;
59790;SDS011;47431;51.640;5.554;2022-09-16T17:22:31;7.80;;;1.48;;
59790;SDS011;47431;51.640;5.554;2022-09-16T17:24:57;18.73;;;2.53;;
59790;SDS011;47431;51.640;5.554;2022-09-16T17:27:22;9.55;;;2.42;;
59790;SDS011;47431;51.640;5.554;2022-09-16T17:29:50;5.80;;;1.70;;
59790;SDS011;47431;51.640;5.554;2022-09-16T17:32:16;8.98;;;1.67;;
59790;SDS011;47431;51.640;5.554;2022-09-16T17:34:42;9.55;;;1.73;;
59790;SDS011;47431;51.640;5.554;2022-09-16T17:37:07;12.82;;;2.13;;
59790;SDS011;47431;51.640;5.554;2022-09-16T17:39:32;6.63;;;1.92;;
59790;SDS011;47431;51.640;5.554;2022-09-16T17:41:58;13.55;;;2.03;;
59790;SDS011;47431;51.640;5.554;2022-09-16T17:44:24;10.88;;;2.42;;
59790;SDS011;47431;51.640;5.554;2022-09-16T17:46:51;15.40;;;2.63;;
59790;SDS011;47431;51.640;5.554;2022-09-16T17:49:17;8.57;;;1.88;;
59790;SDS011;47431;51.640;5.554;2022-09-16T17:51:48;5.45;;;1.60;;
59790;SDS011;47431;51.640;5.554;2022-09-16T17:54:14;9.82;;;2.63;;
59790;SDS011;47431;51.640;5.554;2022-09-16T17:56:41;7.13;;;2.03;;
59790;SDS011;47431;51.640;5.554;2022-09-16T17:59:07;6.22;;;1.95;;
59790;SDS011;47431;51.640;5.554;2022-09-16T18:01:33;13.68;;;2.42;;
59790;SDS011;47431;51.640;5.554;2022-09-16T18:03:59;17.17;;;2.60;;
59790;SDS011;47431;51.640;5.554;2022-09-16T18:06:27;11.05;;;2.67;;
59790;SDS011;47431;51.640;5.554;2022-09-16T18:08:55;9.75;;;2.72;;
59790;SDS011;47431;51.640;5.554;2022-09-16T18:11:23;9.02;;;1.67;;
59790;SDS011;47431;51.640;5.554;2022-09-16T18:13:52;11.88;;;2.20;;